createdAt,value
2022-10-26T00:00:08.532Z,13.05
2022-10-26T00:02:42.622Z,14.15
2022-10-26T00:05:10.564Z,11.90
2022-10-26T00:10:08.585Z,14.57
2022-10-26T00:12:36.450Z,10.75
2022-10-26T00:15:07.371Z,13.27
2022-10-26T00:17:35.975Z,15.88
2022-10-26T00:20:03.947Z,12.82
2022-10-26T00:22:34.290Z,12.50
2022-10-26T00:25:02.221Z,10.70
2022-10-26T00:27:38.539Z,13.77
2022-10-26T00:30:07.752Z,13.77
2022-10-26T00:32:36.158Z,10.13
2022-10-26T00:35:11.879Z,9.55
2022-10-26T00:37:56.573Z,15.07
2022-10-26T00:40:28.446Z,12.10
2022-10-26T00:42:57.181Z,11.15
2022-10-26T00:45:26.821Z,13.80
2022-10-26T00:47:58.731Z,11.20
2022-10-26T00:50:33.873Z,15.73
2022-10-26T00:53:03.475Z,10.93
2022-10-26T00:55:35.138Z,11.30
2022-10-26T00:58:03.659Z,11.90
2022-10-26T01:00:32.127Z,10.75
2022-10-26T01:03:01.656Z,10.90
2022-10-26T01:05:31.047Z,11.80
2022-10-26T01:07:59.308Z,11.38
2022-10-26T01:10:27.655Z,13.57
2022-10-26T01:12:58.491Z,11.63
2022-10-26T01:15:39.433Z,11.18
2022-10-26T01:18:27.538Z,11.75
2022-10-26T01:21:07.106Z,10.82
2022-10-26T01:24:05.493Z,13.00
2022-10-26T01:26:41.020Z,11.27
2022-10-26T01:29:59.122Z,9.85
2022-10-26T01:35:01.680Z,13.60
2022-10-26T01:37:31.830Z,11.15
2022-10-26T01:40:11.568Z,9.60
2022-10-26T01:42:40.046Z,9.45
2022-10-26T01:45:08.762Z,11.98
2022-10-26T01:47:37.172Z,15.07
2022-10-26T01:50:05.501Z,9.65
2022-10-26T01:52:33.676Z,8.98
2022-10-26T01:55:03.566Z,11.80
2022-10-26T01:57:33.282Z,11.10
2022-10-26T02:00:07.103Z,8.63
2022-10-26T02:03:15.668Z,11.38
2022-10-26T02:06:09.259Z,9.32
2022-10-26T02:09:12.164Z,10.30
2022-10-26T02:11:46.781Z,14.07
2022-10-26T02:14:47.126Z,8.23
2022-10-26T02:17:49.101Z,9.40
2022-10-26T02:20:29.316Z,11.63
2022-10-26T02:22:57.110Z,9.43
2022-10-26T02:25:28.751Z,11.07
2022-10-26T02:27:59.428Z,9.52
2022-10-26T02:30:27.308Z,8.70
2022-10-26T02:32:56.794Z,13.48
2022-10-26T02:35:32.428Z,13.95
2022-10-26T02:38:01.619Z,11.55
2022-10-26T02:40:29.814Z,10.63
2022-10-26T02:43:01.032Z,10.60
2022-10-26T02:45:31.622Z,13.63
2022-10-26T02:48:02.134Z,11.27
2022-10-26T02:51:01.318Z,13.20
2022-10-26T02:53:35.682Z,11.68
2022-10-26T02:56:07.411Z,12.95
2022-10-26T02:58:37.529Z,12.32
2022-10-26T03:01:06.004Z,12.48
2022-10-26T03:03:34.373Z,10.50
2022-10-26T03:06:04.319Z,9.32
2022-10-26T03:08:34.585Z,9.63
2022-10-26T03:11:02.550Z,8.60
2022-10-26T03:13:30.341Z,10.13
2022-10-26T03:15:58.248Z,11.73
2022-10-26T03:18:27.269Z,12.85
2022-10-26T03:20:55.333Z,12.52
2022-10-26T03:23:23.174Z,10.55
2022-10-26T03:25:51.871Z,8.95
2022-10-26T03:28:20.063Z,11.40
2022-10-26T03:30:47.768Z,10.55
2022-10-26T03:33:16.832Z,8.23
2022-10-26T03:35:44.846Z,10.30
2022-10-26T03:38:15.961Z,9.65
2022-10-26T03:40:44.837Z,10.63
2022-10-26T03:43:13.232Z,7.75
2022-10-26T03:45:42.349Z,8.23
2022-10-26T03:48:10.092Z,8.68
2022-10-26T03:50:38.172Z,7.28
2022-10-26T03:53:06.184Z,10.48
2022-10-26T03:55:34.319Z,8.98
2022-10-26T03:58:02.440Z,6.82
2022-10-26T04:00:30.405Z,12.15
2022-10-26T04:03:01.359Z,8.32
2022-10-26T04:05:29.372Z,7.10
2022-10-26T04:07:58.461Z,10.10
2022-10-26T04:10:27.901Z,7.47
2022-10-26T04:12:55.863Z,6.18
2022-10-26T04:15:25.532Z,4.95
2022-10-26T04:18:00.895Z,9.35
2022-10-26T04:20:29.595Z,10.73
2022-10-26T04:23:04.572Z,7.30
2022-10-26T04:25:36.456Z,6.22
2022-10-26T04:28:05.102Z,5.30
2022-10-26T04:30:35.739Z,7.07
2022-10-26T04:33:07.887Z,8.07
2022-10-26T04:35:36.137Z,6.72
2022-10-26T04:38:05.513Z,6.28
2022-10-26T04:40:34.330Z,6.55
2022-10-26T04:43:02.257Z,4.30
2022-10-26T04:45:33.789Z,4.13
2022-10-26T04:48:07.062Z,6.03
2022-10-26T04:50:42.276Z,7.30
2022-10-26T04:53:10.926Z,5.45
2022-10-26T04:55:40.368Z,6.55
2022-10-26T04:58:09.452Z,3.92
2022-10-26T05:00:38.836Z,5.65
2022-10-26T05:03:07.450Z,7.90
2022-10-26T05:05:37.320Z,5.18
2022-10-26T05:08:06.821Z,6.00
2022-10-26T05:10:35.273Z,4.85
2022-10-26T05:13:05.298Z,4.93
2022-10-26T05:15:33.347Z,4.95
2022-10-26T05:18:05.610Z,7.35
2022-10-26T05:20:35.600Z,5.15
2022-10-26T05:23:07.447Z,5.57
2022-10-26T05:25:36.798Z,5.75
2022-10-26T05:28:06.384Z,5.10
2022-10-26T05:30:37.855Z,5.57
2022-10-26T05:33:06.059Z,4.90
2022-10-26T05:35:34.702Z,5.40
2022-10-26T05:38:09.873Z,5.80
2022-10-26T05:40:38.007Z,6.78
2022-10-26T05:43:08.351Z,5.20
2022-10-26T05:45:36.503Z,5.72
2022-10-26T05:48:05.208Z,3.97
2022-10-26T05:50:32.995Z,6.70
2022-10-26T05:53:01.001Z,5.18
2022-10-26T05:55:30.015Z,5.25
2022-10-26T05:58:16.822Z,8.25
2022-10-26T06:01:07.999Z,6.93
2022-10-26T06:03:46.471Z,6.95
2022-10-26T06:06:15.412Z,6.70
2022-10-26T06:08:44.868Z,5.30
2022-10-26T06:11:13.575Z,3.97
2022-10-26T06:13:43.615Z,6.90
2022-10-26T06:16:21.049Z,6.65
2022-10-26T06:19:19.431Z,5.22
2022-10-26T06:22:21.395Z,5.95
2022-10-26T06:25:17.918Z,5.50
2022-10-26T06:27:49.180Z,5.25
2022-10-26T06:30:35.688Z,5.95
2022-10-26T06:33:18.484Z,7.53
2022-10-26T06:36:23.373Z,7.35
2022-10-26T06:39:09.332Z,7.20
2022-10-26T06:41:37.995Z,7.13
2022-10-26T06:44:09.120Z,6.75
2022-10-26T06:46:59.250Z,9.65
2022-10-26T06:49:44.585Z,11.32
2022-10-26T06:52:57.264Z,12.38
2022-10-26T06:55:27.420Z,13.13
2022-10-26T06:58:05.932Z,14.50
2022-10-26T07:00:35.104Z,17.13
2022-10-26T07:03:03.095Z,22.05
2022-10-26T07:05:32.720Z,22.23
2022-10-26T07:08:11.682Z,20.92
2022-10-26T07:10:39.673Z,25.77
2022-10-26T07:13:07.605Z,26.10
2022-10-26T07:15:39.907Z,23.70
2022-10-26T07:18:09.194Z,29.35
2022-10-26T07:20:40.886Z,32.38
2022-10-26T07:23:12.574Z,32.42
2022-10-26T07:25:40.823Z,39.75
2022-10-26T07:28:10.608Z,37.10
2022-10-26T07:30:39.396Z,38.78
2022-10-26T07:33:10.688Z,44.33
2022-10-26T07:35:40.628Z,51.65
2022-10-26T07:38:08.822Z,48.65
2022-10-26T07:40:40.579Z,52.60
2022-10-26T07:43:08.578Z,55.90
2022-10-26T07:45:37.013Z,48.42
2022-10-26T07:48:05.230Z,61.25
2022-10-26T07:50:33.728Z,56.33
2022-10-26T07:53:01.618Z,52.42
2022-10-26T07:55:31.644Z,48.45
2022-10-26T07:57:59.978Z,50.38
2022-10-26T08:00:31.852Z,47.72
2022-10-26T08:03:00.419Z,50.38
2022-10-26T08:05:29.384Z,58.30
2022-10-26T08:07:57.137Z,53.88
2022-10-26T08:10:30.160Z,53.13
2022-10-26T08:12:58.689Z,56.83
2022-10-26T08:15:26.837Z,56.72
2022-10-26T08:17:56.046Z,48.80
2022-10-26T08:20:24.090Z,51.20
2022-10-26T08:22:53.100Z,53.10
2022-10-26T08:25:21.929Z,47.10
2022-10-26T08:27:50.064Z,45.55
2022-10-26T08:30:23.086Z,54.05
2022-10-26T08:33:01.619Z,49.83
2022-10-26T08:35:30.031Z,58.55
2022-10-26T08:37:57.871Z,49.25
2022-10-26T08:40:30.356Z,43.67
2022-10-26T08:43:07.887Z,42.97
2022-10-26T08:45:45.282Z,45.13
2022-10-26T08:48:18.917Z,50.22
2022-10-26T08:51:17.057Z,47.55
2022-10-26T08:53:54.748Z,58.47
2022-10-26T08:56:44.836Z,48.03
2022-10-26T08:59:43.282Z,52.50
2022-10-26T09:02:29.270Z,50.10
2022-10-26T09:05:39.161Z,48.60
2022-10-26T09:08:37.023Z,50.72
2022-10-26T09:11:53.104Z,47.92
2022-10-26T09:15:01.096Z,51.75
2022-10-26T15:45:34.242Z,10.75
2022-10-26T15:48:24.401Z,9.65
2022-10-26T15:50:56.835Z,10.25
2022-10-26T15:53:30.699Z,12.40
2022-10-26T15:56:00.132Z,8.77
2022-10-26T15:59:07.082Z,11.15
2022-10-26T16:01:40.695Z,10.13
2022-10-26T16:04:17.191Z,7.70
2022-10-26T16:06:49.198Z,11.57
2022-10-26T16:09:21.584Z,9.45
2022-10-26T16:11:56.351Z,9.13
2022-10-26T16:14:25.859Z,8.23
2022-10-26T16:17:00.272Z,11.35
2022-10-26T16:19:31.358Z,8.27
2022-10-26T16:22:15.525Z,8.57
2022-10-26T16:24:52.797Z,12.05
2022-10-26T16:27:31.886Z,8.95
2022-10-26T16:30:00.193Z,7.72
2022-10-26T16:32:28.251Z,11.68
2022-10-26T16:35:00.024Z,11.15
2022-10-26T16:37:30.925Z,9.60
2022-10-26T16:39:59.367Z,10.98
2022-10-26T16:42:28.608Z,8.10
2022-10-26T16:45:00.090Z,9.82
2022-10-26T16:47:35.701Z,9.02
2022-10-26T16:50:06.552Z,6.80
2022-10-26T16:52:39.528Z,8.77
2022-10-26T16:55:09.522Z,7.45
2022-10-26T16:57:58.255Z,7.00
2022-10-26T17:00:27.263Z,11.13
2022-10-26T17:02:55.151Z,7.90
2022-10-26T17:05:23.502Z,7.75
2022-10-26T17:07:52.029Z,8.32
2022-10-26T17:10:21.359Z,8.20
2022-10-26T17:12:56.511Z,9.10
2022-10-26T17:15:28.845Z,8.00
2022-10-26T17:18:04.073Z,6.55
2022-10-26T17:20:39.051Z,10.27
2022-10-26T17:23:08.350Z,10.03
2022-10-26T17:25:38.441Z,10.38
2022-10-26T17:28:10.449Z,7.93
2022-10-26T17:30:39.951Z,8.45
2022-10-26T17:33:08.527Z,9.93
2022-10-26T17:35:36.609Z,10.88
2022-10-26T17:38:07.110Z,9.52
2022-10-26T17:40:37.165Z,12.70
2022-10-26T17:43:05.635Z,12.20
2022-10-26T17:45:36.543Z,11.50
2022-10-26T17:49:40.610Z,13.50
2022-10-26T17:52:22.894Z,12.60
2022-10-26T17:55:00.418Z,12.35
2022-10-26T17:57:40.665Z,10.80
2022-10-26T18:00:50.046Z,14.30
2022-10-26T18:03:33.945Z,16.90
2022-10-26T18:06:10.460Z,23.73
2022-10-26T18:08:43.027Z,20.63
2022-10-26T18:11:23.895Z,18.85
2022-10-26T18:13:57.565Z,18.42
2022-10-26T18:16:27.533Z,14.90
2022-10-26T18:19:05.828Z,13.82
2022-10-26T18:22:04.456Z,12.20
2022-10-26T18:24:37.262Z,10.40
2022-10-26T18:27:15.425Z,10.02
2022-10-26T18:29:43.301Z,10.50
2022-10-26T18:32:11.860Z,9.57
2022-10-26T18:34:40.939Z,15.13
2022-10-26T18:37:10.937Z,14.77
2022-10-26T18:39:38.858Z,5.90
2022-10-26T18:42:11.151Z,6.10
2022-10-26T18:44:38.983Z,6.47
2022-10-26T18:47:07.103Z,5.63
2022-10-26T18:49:41.920Z,8.10
2022-10-26T18:52:10.407Z,7.38
2022-10-26T18:54:38.615Z,7.55
2022-10-26T18:57:08.301Z,4.85
2022-10-26T18:59:36.702Z,5.30
2022-10-26T19:04:36.546Z,7.80
2022-10-26T19:07:04.869Z,6.05
2022-10-26T19:09:32.989Z,4.72
2022-10-26T19:12:08.029Z,5.95
2022-10-26T19:14:44.154Z,5.28
2022-10-26T19:17:12.346Z,4.88
2022-10-26T19:19:46.873Z,8.70
2022-10-26T19:22:20.323Z,5.47
2022-10-26T19:24:49.387Z,5.45
2022-10-26T19:27:20.899Z,6.07
2022-10-26T19:29:49.448Z,4.28
2022-10-26T19:32:18.037Z,7.60
2022-10-26T19:34:46.119Z,6.65
2022-10-26T19:37:14.245Z,5.05
2022-10-26T19:39:44.049Z,6.47
2022-10-26T19:42:16.879Z,5.72
2022-10-26T19:44:45.723Z,6.88
2022-10-26T19:47:13.739Z,11.20
2022-10-26T19:49:42.110Z,10.30
2022-10-26T19:52:14.363Z,6.43
2022-10-26T19:54:43.154Z,9.68
2022-10-26T19:57:12.377Z,14.18
2022-10-26T19:59:40.191Z,15.32
2022-10-26T20:02:08.387Z,15.88
2022-10-26T20:04:40.329Z,22.98
2022-10-26T20:07:08.220Z,26.17
2022-10-26T20:09:40.258Z,25.27
2022-10-26T20:12:12.388Z,24.25
2022-10-26T20:14:40.654Z,27.33
2022-10-26T20:18:32.109Z,25.88
2022-10-26T20:21:01.125Z,21.88
2022-10-26T20:23:29.197Z,15.88
2022-10-26T20:26:00.514Z,13.15
2022-10-26T20:28:28.464Z,9.57
2022-10-26T20:30:57.312Z,8.32
2022-10-26T20:33:28.508Z,7.05
2022-10-26T20:35:59.524Z,6.05
2022-10-26T20:38:27.942Z,5.70
2022-10-26T20:40:57.595Z,6.80
2022-10-26T20:43:26.594Z,6.43
2022-10-26T20:45:56.150Z,6.13
2022-10-26T21:29:53.422Z,4.25
2022-10-26T21:32:21.200Z,5.47
2022-10-26T21:34:49.214Z,5.35
2022-10-26T21:37:17.053Z,3.60
2022-10-26T21:39:45.299Z,8.15
2022-10-26T21:42:13.127Z,4.60
2022-10-26T21:44:42.107Z,4.07
2022-10-26T21:47:14.823Z,6.18
2022-10-26T21:49:43.563Z,5.28
2022-10-26T21:52:13.551Z,3.97
2022-10-26T21:54:41.651Z,4.72
2022-10-26T21:57:09.666Z,3.92
2022-10-26T21:59:38.540Z,4.53
2022-10-26T22:02:06.561Z,4.03
2022-10-26T22:04:35.207Z,4.28
2022-10-26T22:07:03.570Z,4.53
2022-10-26T22:09:37.283Z,8.45
2022-10-26T22:12:13.040Z,3.60
2022-10-26T22:14:43.349Z,3.72
2022-10-26T22:17:13.863Z,3.33
2022-10-26T22:19:42.401Z,5.47
2022-10-26T22:22:10.554Z,5.15
2022-10-26T22:24:42.478Z,3.38
2022-10-26T22:27:10.816Z,4.80
2022-10-26T22:29:39.046Z,4.35
2022-10-26T22:32:08.462Z,4.32
2022-10-26T22:34:38.242Z,3.47
2022-10-26T22:37:11.959Z,3.78
2022-10-26T22:39:40.227Z,3.35
2022-10-26T22:42:08.466Z,6.43
2022-10-26T22:44:36.382Z,4.75
2022-10-26T22:47:04.194Z,5.80
2022-10-26T22:49:32.972Z,4.25
2022-10-26T22:52:02.485Z,5.85
2022-10-26T22:54:31.587Z,7.95
2022-10-26T22:57:01.948Z,5.35
2022-10-26T22:59:29.932Z,4.75
2022-10-26T23:01:58.767Z,6.53
2022-10-26T23:05:01.238Z,5.68
2022-10-26T23:07:29.918Z,5.15
2022-10-26T23:09:59.031Z,5.15
2022-10-26T23:12:26.874Z,5.97
2022-10-26T23:14:59.878Z,7.43
2022-10-26T23:17:28.615Z,6.05
2022-10-26T23:19:56.666Z,6.00
2022-10-26T23:22:25.542Z,7.70
2022-10-26T23:24:55.069Z,4.57
2022-10-26T23:27:22.948Z,6.93
2022-10-26T23:29:51.706Z,5.35
2022-10-26T23:32:20.316Z,6.65
2022-10-26T23:34:48.640Z,7.13
2022-10-26T23:37:19.584Z,6.53
2022-10-26T23:39:47.666Z,6.43
2022-10-26T23:42:15.648Z,6.10
2022-10-26T23:44:43.558Z,8.60
2022-10-26T23:47:11.688Z,7.28
2022-10-26T23:49:39.980Z,5.85
2022-10-26T23:52:07.999Z,8.13
2022-10-26T23:54:36.161Z,8.75
2022-10-26T23:57:04.747Z,9.57
2022-10-26T23:59:33.386Z,8.60
